Time;durP1;ratioP1;P1;durP2;ratioP2;P2;SDS_P1;SDS_P2;PMS_P1;PMS_P2;Temp;Humidity;BMP_temperature;BMP_pressure;BME280_temperature;BME280_humidity;BME280_pressure;Samples;Min_cycle;Max_cycle;Signal;HPM_P1;HPM_P2
2021/11/30 00:00:55;;;;;;;1.70;1.60;;;;;;;16.17;38.85;95236.81;5074279;28;20085;-72
2021/11/30 00:03:21;;;;;;;4.80;2.42;;;;;;;16.40;38.72;95223.19;5092023;28;20495;-73
2021/11/30 00:05:47;;;;;;;2.95;2.00;;;;;;;16.25;39.33;95220.06;5074412;28;20047;-74
2021/11/30 00:08:15;;;;;;;1.70;1.50;;;;;;;15.99;39.71;95213.66;5074133;28;20036;-73
2021/11/30 00:10:45;;;;;;;6.88;2.13;;;;;;;16.40;39.24;95180.38;5074119;28;20082;-73
2021/11/30 00:13:16;;;;;;;7.05;2.83;;;;;;;16.78;38.16;95149.47;5092088;28;20048;-72
2021/11/30 00:15:42;;;;;;;2.13;1.83;;;;;;;16.37;39.04;95167.59;5040671;28;20040;-73
2021/11/30 00:18:08;;;;;;;3.25;1.95;;;;;;;16.58;38.68;95144.63;5091695;28;20083;-72
2021/11/30 00:20:39;;;;;;;3.80;2.08;;;;;;;17.10;38.08;95150.31;5057428;28;20137;-71
2021/11/30 00:23:05;;;;;;;2.47;2.10;;;;;;;16.91;38.36;95142.47;5040643;28;20086;-73
2021/11/30 00:25:32;;;;;;;4.15;2.08;;;;;;;16.79;38.22;95118.91;5074111;28;20063;-73
2021/11/30 00:27:58;;;;;;;2.60;1.88;;;;;;;16.19;39.19;95098.16;5057243;28;20052;-73
2021/11/30 00:30:24;;;;;;;2.05;1.90;;;;;;;16.72;38.63;95094.47;5073268;28;20043;-73
2021/11/30 00:32:50;;;;;;;2.92;2.17;;;;;;;16.80;38.79;95069.59;5056610;28;20111;-73
2021/11/30 00:35:16;;;;;;;4.90;2.10;;;;;;;16.34;38.90;95028.19;5056455;28;20089;-76
2021/11/30 00:37:42;;;;;;;3.10;2.08;;;;;;;16.74;38.87;95044.03;5073193;28;20048;-73
2021/11/30 00:40:09;;;;;;;4.22;2.50;;;;;;;16.96;38.77;95037.06;5056561;28;20557;-74
2021/11/30 00:42:36;;;;;;;3.60;2.30;;;;;;;16.48;39.39;95029.72;5091292;28;20384;-73
2021/11/30 00:45:04;;;;;;;2.17;1.88;;;;;;;16.59;38.83;95024.91;5073621;28;20534;-74
2021/11/30 00:47:30;;;;;;;2.45;1.83;;;;;;;16.60;39.11;94994.34;5056988;28;20036;-74
2021/11/30 00:49:59;;;;;;;4.22;1.52;;;;;;;17.14;38.65;94960.97;5073161;28;20525;-74
2021/11/30 00:52:25;;;;;;;2.05;1.85;;;;;;;17.07;38.86;94958.72;5091243;28;20127;-72
2021/11/30 00:54:52;;;;;;;1.60;1.50;;;;;;;17.04;38.41;94972.75;5072927;28;20162;-72
2021/11/30 00:57:19;;;;;;;1.92;1.77;;;;;;;17.31;38.44;94969.84;5072740;28;20036;-72
2021/11/30 00:59:45;;;;;;;2.38;2.10;;;;;;;15.79;40.78;94952.72;5090888;28;20112;-72
2021/11/30 01:02:11;;;;;;;2.65;2.30;;;;;;;16.03;41.32;94936.38;5072695;28;20614;-74
2021/11/30 01:04:37;;;;;;;3.50;2.70;;;;;;;16.60;39.85;94908.66;5039530;28;20044;-73
2021/11/30 01:07:03;;;;;;;6.53;2.53;;;;;;;16.94;39.28;94873.13;5072788;28;20043;-72
2021/11/30 01:09:28;;;;;;;5.93;2.95;;;;;;;16.74;38.99;94861.88;5072561;28;20051;-75
2021/11/30 01:11:54;;;;;;;3.15;2.75;;;;;;;16.83;39.13;94869.97;5056383;28;20040;-75
2021/11/30 01:14:21;;;;;;;3.78;3.40;;;;;;;16.41;40.48;94871.38;5073405;28;20151;-75
2021/11/30 01:16:47;;;;;;;3.42;3.08;;;;;;;16.79;39.61;94852.91;5056513;28;20058;-75
2021/11/30 01:19:13;;;;;;;3.75;3.20;;;;;;;16.97;39.40;94840.34;5073346;28;20515;-75
2021/11/30 01:21:39;;;;;;;10.93;4.43;;;;;;;16.57;40.49;94834.31;5056477;28;20079;-75
2021/11/30 01:24:05;;;;;;;12.40;4.30;;;;;;;16.50;40.69;94788.44;5056483;28;20043;-73
2021/11/30 01:26:32;;;;;;;13.63;4.30;;;;;;;16.90;40.62;94811.34;5072396;28;20051;-73
2021/11/30 01:28:58;;;;;;;13.38;4.50;;;;;;;16.81;39.87;94779.19;5072625;28;20112;-74
2021/11/30 01:31:24;;;;;;;18.25;5.20;;;;;;;16.74;40.31;94776.19;5072300;28;20508;-73
2021/11/30 01:33:50;;;;;;;16.38;4.78;;;;;;;16.83;40.02;94768.97;5039065;28;20036;-74
2021/11/30 01:36:16;;;;;;;12.30;4.93;;;;;;;17.00;39.52;94776.22;5090565;28;20538;-73
2021/11/30 01:38:42;;;;;;;10.63;4.95;;;;;;;16.46;41.00;94742.78;5055839;28;20342;-72
2021/11/30 01:41:09;;;;;;;11.65;5.18;;;;;;;16.32;41.44;94750.13;5055295;28;20419;-73
2021/11/30 01:43:40;;;;;;;11.00;4.88;;;;;;;15.96;42.86;94741.53;5055996;28;20038;-74
2021/11/30 01:46:12;;;;;;;10.77;5.00;;;;;;;16.36;41.70;94715.50;5090558;28;20044;-74
2021/11/30 01:51:25;;;;;;;14.90;5.47;;;;;;;17.36;40.48;94717.66;5040961;28;20051;-74
2021/11/30 01:53:52;;;;;;;20.35;6.35;;;;;;;17.15;40.88;94706.03;5055924;28;20047;-74
2021/11/30 01:56:18;;;;;;;10.70;5.63;;;;;;;16.72;41.87;94702.63;5074167;28;20040;-73
2021/11/30 01:58:45;;;;;;;12.02;5.97;;;;;;;17.28;41.14;94693.56;5074752;28;20040;-73
2021/11/30 02:01:11;;;;;;;11.65;5.88;;;;;;;17.09;41.23;94680.50;5074441;28;20055;-74
2021/11/30 02:03:37;;;;;;;12.65;6.00;;;;;;;16.36;42.63;94644.00;5092876;28;20048;-74
2021/11/30 02:06:03;;;;;;;11.13;5.97;;;;;;;17.18;41.00;94651.00;5057751;28;20036;-73
2021/11/30 02:08:29;;;;;;;11.20;6.20;;;;;;;17.86;40.22;94693.69;5075611;28;20524;-73
2021/11/30 02:10:56;;;;;;;11.15;6.65;;;;;;;17.90;40.18;94694.59;5059281;28;20499;-72
2021/11/30 02:13:42;;;;;;;11.70;6.18;;;;;;;17.80;40.33;94678.88;5079535;28;20047;-72
2021/11/30 02:16:08;;;;;;;9.50;6.65;;;;;;;17.62;41.07;94678.16;5058690;28;20201;-73
2021/11/30 02:18:40;;;;;;;11.50;6.72;;;;;;;17.68;41.80;94665.38;5040316;28;20564;-72
2021/11/30 02:21:07;;;;;;;9.10;5.93;;;;;;;17.53;42.18;94669.38;5074964;28;20059;-73
2021/11/30 02:23:52;;;;;;;11.00;6.88;;;;;;;17.85;42.47;94665.28;5073566;28;20063;-73
2021/11/30 02:26:18;;;;;;;10.68;6.55;;;;;;;17.98;41.84;94653.53;5042865;28;20071;-73
2021/11/30 02:28:47;;;;;;;8.38;6.05;;;;;;;18.72;41.22;94654.44;5091702;28;20165;-74
2021/11/30 02:31:16;;;;;;;9.98;6.00;;;;;;;18.46;42.27;94643.13;5073624;28;20079;-72
2021/11/30 02:33:42;;;;;;;8.63;6.10;;;;;;;18.05;42.38;94654.56;5092613;28;20083;-71
2021/11/30 02:36:29;;;;;;;9.40;6.65;;;;;;;18.92;41.76;94636.69;5094675;28;20051;-72
2021/11/30 02:38:57;;;;;;;8.68;6.05;;;;;;;19.13;41.78;94635.53;5059514;28;20036;-71
2021/11/30 02:41:23;;;;;;;9.15;6.22;;;;;;;19.60;40.01;94625.97;5075931;28;20068;-73
2021/11/30 02:43:50;;;;;;;8.85;6.28;;;;;;;19.07;40.94;94628.78;5059203;28;20498;-71
2021/11/30 02:46:37;;;;;;;7.20;5.30;;;;;;;19.93;39.95;94626.66;5058919;28;20040;-71
2021/11/30 02:49:05;;;;;;;11.18;6.80;;;;;;;19.39;41.11;94617.22;5075292;28;20040;-71
2021/11/30 02:51:32;;;;;;;10.55;6.13;;;;;;;18.93;41.72;94638.28;5058801;28;20487;-75
2021/11/30 02:54:02;;;;;;;9.57;6.10;;;;;;;19.57;41.00;94621.25;5059338;28;20478;-75
2021/11/30 02:56:28;;;;;;;10.77;6.30;;;;;;;19.63;40.87;94625.31;5093730;28;20046;-73
2021/11/30 02:58:55;;;;;;;10.68;5.97;;;;;;;19.84;40.38;94617.13;5060156;28;20043;-74
2021/11/30 03:01:21;;;;;;;11.95;6.28;;;;;;;19.65;40.63;94639.22;5060841;28;20097;-75
2021/11/30 03:03:47;;;;;;;9.95;5.88;;;;;;;19.79;40.39;94628.09;5075849;28;20135;-74
2021/11/30 03:06:13;;;;;;;8.93;3.83;;;;;;;19.26;41.20;94657.84;5058532;28;20523;-74
2021/11/30 03:08:41;;;;;;;3.78;3.08;;;;;;;19.34;41.78;94647.00;5058943;28;20120;-75
2021/11/30 03:11:08;;;;;;;6.55;2.90;;;;;;;19.51;42.17;94621.84;5059053;28;20047;-76
2021/11/30 03:13:34;;;;;;;2.75;1.70;;;;;;;18.91;43.50;94684.31;5076621;28;20055;-79
2021/11/30 03:16:00;;;;;;;2.80;1.40;;;;;;;18.41;43.06;94688.97;5042535;28;20043;-77
2021/11/30 03:18:26;;;;;;;1.80;1.38;;;;;;;18.63;42.98;94702.06;5042116;28;20052;-77
2021/11/30 03:20:52;;;;;;;1.10;0.90;;;;;;;18.15;43.70;94685.63;5042160;28;20552;-76
2021/11/30 03:23:17;;;;;;;1.65;1.00;;;;;;;18.45;43.05;94687.22;5025265;28;20115;-78
2021/11/30 03:25:44;;;;;;;1.13;0.82;;;;;;;18.03;43.50;94721.22;5075938;28;20044;-78
2021/11/30 03:28:12;;;;;;;0.80;0.80;;;;;;;18.78;41.91;94744.47;5077024;28;20048;-73
2021/11/30 03:30:41;;;;;;;0.70;0.70;;;;;;;18.68;42.06;94691.13;5025512;28;20078;-79
2021/11/30 03:35:53;;;;;;;0.40;0.40;;;;;;;18.13;41.81;94720.06;5061423;28;20047;-81
2021/11/30 03:38:19;;;;;;;2.20;0.60;;;;;;;18.08;41.31;94728.31;5042227;28;20404;-79
2021/11/30 03:40:45;;;;;;;1.55;0.50;;;;;;;17.25;42.59;94703.00;5076414;28;20048;-81
2021/11/30 03:43:11;;;;;;;1.45;0.40;;;;;;;17.07;42.23;94810.56;5059791;28;20102;-80
2021/11/30 03:45:37;;;;;;;0.30;0.30;;;;;;;17.10;42.25;94767.84;5059839;28;20534;-84
2021/11/30 03:48:03;;;;;;;0.40;0.40;;;;;;;17.17;42.26;94697.69;5044066;28;20411;-84
2021/11/30 03:50:28;;;;;;;1.10;0.40;;;;;;;17.02;42.16;94767.84;5093411;28;20123;-83
2021/11/30 03:52:54;;;;;;;2.20;0.40;;;;;;;17.30;41.32;94691.34;5058402;28;20159;-85
2021/11/30 03:55:20;;;;;;;0.85;0.50;;;;;;;17.02;41.85;94741.06;5041906;28;20460;-82
2021/11/30 03:57:46;;;;;;;0.40;0.40;;;;;;;17.20;42.30;94860.53;5025315;28;20043;-85
2021/11/30 04:00:12;;;;;;;1.77;0.57;;;;;;;16.78;43.44;94736.16;5075114;28;20044;-82
2021/11/30 04:02:38;;;;;;;2.85;0.85;;;;;;;16.55;43.66;94745.44;5042269;28;20051;-81
2021/11/30 04:05:08;;;;;;;0.43;0.43;;;;;;;16.91;43.27;94779.97;5042705;28;20116;-73
2021/11/30 04:07:34;;;;;;;0.30;0.30;;;;;;;16.48;42.89;94779.94;5091859;28;20117;-74
2021/11/30 04:10:01;;;;;;;0.73;0.40;;;;;;;16.58;42.74;94753.66;5073333;28;20144;-72
2021/11/30 04:12:27;;;;;;;0.60;0.55;;;;;;;15.89;42.68;94716.31;5091443;28;20040;-74
2021/11/30 04:14:53;;;;;;;0.70;0.40;;;;;;;15.90;42.22;94884.53;5056739;28;20567;-74
2021/11/30 04:17:18;;;;;;;1.10;0.38;;;;;;;15.92;42.24;94769.19;5072771;28;20495;-73
2021/11/30 04:19:45;;;;;;;0.40;0.40;;;;;;;15.43;41.78;94842.41;5070584;28;20087;-75
2021/11/30 04:22:12;;;;;;;2.30;0.40;;;;;;;15.78;41.88;94849.53;5071344;28;20048;-73
2021/11/30 04:24:39;;;;;;;0.35;0.35;;;;;;;15.30;42.91;94802.34;5069638;28;20186;-74
2021/11/30 04:27:04;;;;;;;0.57;0.30;;;;;;;15.85;42.21;94798.28;5071128;28;20040;-73
2021/11/30 04:29:31;;;;;;;0.30;0.30;;;;;;;15.29;42.61;94814.91;5071061;28;20389;-73
2021/11/30 04:31:57;;;;;;;1.05;0.50;;;;;;;15.75;42.74;94807.34;5070148;28;20048;-71
2021/11/30 04:34:23;;;;;;;0.75;0.50;;;;;;;14.97;44.14;94856.00;5070814;28;20037;-72
2021/11/30 04:36:48;;;;;;;1.38;0.40;;;;;;;15.10;43.92;94859.69;5052788;28;20168;-69
2021/11/30 04:39:14;;;;;;;0.40;0.30;;;;;;;14.75;43.99;94944.06;5070445;28;20135;-71
2021/11/30 04:41:42;;;;;;;0.43;0.40;;;;;;;14.28;47.93;94898.28;5071547;28;20070;-73
2021/11/30 04:44:10;;;;;;;1.85;0.47;;;;;;;14.23;47.76;94823.66;5070687;28;20506;-71
2021/11/30 04:46:48;;;;;;;0.60;0.50;;;;;;;13.72;48.43;94876.31;5060145;28;20066;-71
2021/11/30 04:49:16;;;;;;;0.57;0.40;;;;;;;14.70;47.29;94847.25;5071699;28;20044;-72
2021/11/30 04:51:42;;;;;;;1.95;0.50;;;;;;;14.47;45.98;94872.28;5069609;28;20408;-73
2021/11/30 04:54:08;;;;;;;0.40;0.40;;;;;;;14.84;46.15;94941.47;5027763;28;20063;-72
2021/11/30 04:56:34;;;;;;;0.50;0.50;;;;;;;15.13;45.00;94905.31;5048124;28;20088;-73
2021/11/30 04:59:00;;;;;;;0.45;0.40;;;;;;;15.36;44.37;95017.59;5060511;28;20047;-72
2021/11/30 05:01:25;;;;;;;0.40;0.40;;;;;;;14.88;44.69;94921.88;5069761;28;20137;-70
2021/11/30 05:03:52;;;;;;;1.02;0.40;;;;;;;15.84;44.80;94895.66;5068711;28;20131;-77
2021/11/30 05:06:18;;;;;;;0.40;0.40;;;;;;;15.12;44.87;94908.28;5036723;28;20056;-80
2021/11/30 05:08:44;;;;;;;1.10;0.40;;;;;;;15.40;44.30;94906.34;5018356;28;20032;-79
2021/11/30 05:11:09;;;;;;;0.40;0.40;;;;;;;15.16;44.40;94936.78;5017238;28;20048;-78
2021/11/30 05:13:36;;;;;;;0.68;0.60;;;;;;;15.64;43.81;94945.06;5034687;28;20079;-78
2021/11/30 05:16:01;;;;;;;0.50;0.50;;;;;;;15.28;44.09;94944.28;5019843;28;20456;-79
2021/11/30 05:18:27;;;;;;;0.47;0.40;;;;;;;15.90;43.67;94929.22;5018704;28;20066;-79
2021/11/30 05:20:54;;;;;;;1.65;0.60;;;;;;;15.46;43.17;95023.56;5019237;28;20114;-75
2021/11/30 05:23:30;;;;;;;0.80;0.50;;;;;;;15.77;43.71;94952.25;5017265;28;20041;-75
2021/11/30 05:26:00;;;;;;;0.73;0.50;;;;;;;16.56;42.47;95012.91;5052852;28;20051;-76
2021/11/30 05:28:27;;;;;;;0.30;0.30;;;;;;;15.57;43.20;94959.94;5067476;28;20076;-76
2021/11/30 05:30:53;;;;;;;0.40;0.40;;;;;;;15.58;43.37;94977.56;5051805;28;20048;-74
2021/11/30 05:33:19;;;;;;;0.40;0.40;;;;;;;15.22;43.46;94948.16;5051699;28;20109;-74
2021/11/30 05:35:45;;;;;;;0.75;0.50;;;;;;;14.87;43.54;94959.56;5034901;28;20048;-73
2021/11/30 05:38:11;;;;;;;0.45;0.45;;;;;;;15.41;43.60;95052.28;5034852;28;20070;-74
2021/11/30 05:40:41;;;;;;;0.93;0.40;;;;;;;15.55;42.95;94973.63;5051578;28;20059;-73
2021/11/30 05:43:07;;;;;;;1.33;0.50;;;;;;;15.39;42.58;95131.97;5068230;28;20052;-74
2021/11/30 05:45:33;;;;;;;0.50;0.50;;;;;;;14.75;42.19;95069.53;5067949;28;20112;-76
2021/11/30 05:47:59;;;;;;;0.50;0.50;;;;;;;15.11;42.20;95048.31;5034955;28;20416;-74
2021/11/30 05:50:25;;;;;;;0.73;0.60;;;;;;;14.84;42.50;95099.03;5068542;28;20041;-74
2021/11/30 05:52:51;;;;;;;0.40;0.40;;;;;;;14.89;41.65;95080.25;5034890;28;20457;-72
2021/11/30 05:55:17;;;;;;;0.57;0.43;;;;;;;14.83;41.44;94995.97;5052021;28;20097;-74
2021/11/30 05:57:43;;;;;;;1.02;0.90;;;;;;;14.82;40.42;95027.22;5069335;28;20127;-76
2021/11/30 06:00:10;;;;;;;0.45;0.40;;;;;;;14.96;40.39;95025.34;5052355;28;20103;-76
2021/11/30 06:02:54;;;;;;;0.40;0.40;;;;;;;14.99;40.53;95006.06;5068669;28;20051;-77
2021/11/30 06:05:19;;;;;;;0.40;0.40;;;;;;;14.39;40.22;95121.94;5053127;28;20040;-77
2021/11/30 06:07:46;;;;;;;0.43;0.43;;;;;;;14.52;40.81;94944.25;5034634;28;20469;-78
2021/11/30 06:10:11;;;;;;;0.45;0.45;;;;;;;14.32;40.79;95084.16;5067674;28;20045;-75
2021/11/30 06:12:37;;;;;;;1.30;0.60;;;;;;;14.64;40.23;95164.25;5067386;28;20040;-74
2021/11/30 06:15:03;;;;;;;0.75;0.60;;;;;;;14.37;39.78;95107.31;5034854;28;20044;-75
2021/11/30 06:17:29;;;;;;;0.85;0.40;;;;;;;14.40;39.54;95085.38;5068487;28;20076;-73
2021/11/30 06:19:55;;;;;;;0.80;0.60;;;;;;;14.56;40.56;95092.84;5071454;28;20079;-78
2021/11/30 06:22:20;;;;;;;0.93;0.50;;;;;;;13.77;40.53;95057.53;5089763;28;20458;-70
2021/11/30 06:24:46;;;;;;;0.50;0.50;;;;;;;14.27;40.34;95107.47;5071163;28;20051;-77
2021/11/30 06:27:12;;;;;;;0.43;0.43;;;;;;;14.91;40.19;95092.19;5037784;28;20032;-73
2021/11/30 06:29:53;;;;;;;1.10;0.50;;;;;;;15.36;40.21;95076.41;5066466;28;20055;-74
2021/11/30 06:32:19;;;;;;;;;;;;;;;15.53;39.40;95108.69;5051049;28;20569;-77
2021/11/30 06:34:44;;;;;;;0.70;0.70;;;;;;;14.66;41.01;95115.91;5069753;28;19916;-78
2021/11/30 06:37:10;;;;;;;0.60;0.60;;;;;;;14.45;40.87;95154.69;5052914;28;20047;-75
2021/11/30 06:39:36;;;;;;;1.50;0.60;;;;;;;14.02;40.34;95191.31;5070904;28;20104;-76
2021/11/30 06:42:03;;;;;;;0.57;0.50;;;;;;;14.21;40.02;95105.91;5040103;28;20040;-76
2021/11/30 06:44:31;;;;;;;0.50;0.50;;;;;;;13.98;40.21;95126.25;5047880;28;20047;-74
2021/11/30 06:46:57;;;;;;;0.68;0.50;;;;;;;14.14;40.30;95146.31;5073374;28;20104;-75
2021/11/30 06:49:23;;;;;;;0.88;0.70;;;;;;;14.18;40.23;95120.63;5056473;28;20036;-77
2021/11/30 06:51:48;;;;;;;0.60;0.60;;;;;;;14.28;40.54;95123.19;5091004;28;20649;-77
2021/11/30 06:54:14;;;;;;;2.92;0.70;;;;;;;14.12;40.42;95113.78;5056696;28;20411;-76
2021/11/30 06:56:40;;;;;;;1.20;0.68;;;;;;;13.78;40.44;95123.09;5073316;28;20338;-74
2021/11/30 06:59:06;;;;;;;0.73;0.70;;;;;;;13.86;40.17;95199.75;5073120;28;20093;-76
2021/11/30 07:01:33;;;;;;;0.50;0.50;;;;;;;13.74;40.39;95191.38;5023522;28;20044;-77
2021/11/30 07:04:01;;;;;;;1.95;0.60;;;;;;;13.58;40.16;95311.50;5073127;28;20346;-74
2021/11/30 07:06:39;;;;;;;2.80;0.60;;;;;;;13.89;39.92;95172.53;5040208;28;20526;-76
2021/11/30 07:09:16;;;;;;;1.52;0.68;;;;;;;13.65;40.00;95145.91;5071619;28;20056;-74
2021/11/30 07:14:08;;;;;;;0.70;0.63;;;;;;;13.74;39.21;95240.19;5056730;28;20040;-76
2021/11/30 07:16:35;;;;;;;0.55;0.55;;;;;;;13.75;39.37;95111.13;5053274;28;20040;-79
2021/11/30 07:19:01;;;;;;;1.10;0.70;;;;;;;13.34;39.33;95188.13;5036901;28;20091;-76
2021/11/30 07:21:27;;;;;;;0.63;0.63;;;;;;;13.47;38.76;95243.38;5036985;28;20097;-75
2021/11/30 07:23:55;;;;;;;1.60;0.60;;;;;;;13.99;37.86;95164.41;5037160;28;20044;-75
2021/11/30 07:26:22;;;;;;;2.20;0.70;;;;;;;13.28;38.09;95241.72;5070766;28;20046;-69
2021/11/30 07:28:48;;;;;;;1.17;0.70;;;;;;;12.93;37.50;95183.44;5047139;28;20044;-76
2021/11/30 07:31:15;;;;;;;0.88;0.50;;;;;;;12.78;37.20;95216.31;5053429;28;20041;-77
2021/11/30 07:33:44;;;;;;;0.50;0.50;;;;;;;13.50;37.33;95165.53;5053385;28;20043;-77
2021/11/30 07:36:11;;;;;;;0.90;0.60;;;;;;;13.46;37.01;95169.88;5007318;28;20212;-75
2021/11/30 07:38:38;;;;;;;0.70;0.70;;;;;;;13.24;37.20;95275.31;5072013;28;20485;-74
2021/11/30 07:41:05;;;;;;;2.53;0.70;;;;;;;13.83;36.57;95160.34;5055574;28;20032;-77
2021/11/30 07:43:31;;;;;;;1.02;0.68;;;;;;;13.86;35.69;95168.56;5072001;28;20115;-78
2021/11/30 07:45:57;;;;;;;1.65;0.65;;;;;;;13.61;35.60;95184.88;5055113;28;20596;-77
2021/11/30 07:48:23;;;;;;;0.85;0.75;;;;;;;13.51;35.45;95182.34;5056549;28;20138;-74
2021/11/30 07:50:50;;;;;;;0.85;0.68;;;;;;;14.36;34.90;95177.78;5071890;28;20047;-75
2021/11/30 07:53:16;;;;;;;0.60;0.60;;;;;;;13.78;35.33;95291.06;5073483;28;20520;-77
2021/11/30 07:55:43;;;;;;;1.10;0.70;;;;;;;14.11;35.25;95160.22;5074211;28;20044;-78
2021/11/30 07:58:08;;;;;;;1.95;0.70;;;;;;;13.62;35.32;95165.16;5039696;28;20494;-77
2021/11/30 08:00:35;;;;;;;1.85;1.25;;;;;;;14.02;37.01;95177.97;5057190;28;20048;-77
2021/11/30 08:03:00;;;;;;;0.93;0.82;;;;;;;13.43;37.48;95263.69;5091892;28;20040;-76
2021/11/30 08:05:26;;;;;;;0.70;0.70;;;;;;;12.97;39.00;95133.88;5073991;28;20044;-76
2021/11/30 08:07:52;;;;;;;2.63;0.88;;;;;;;13.19;38.79;95150.19;5056558;28;20092;-75
2021/11/30 08:10:20;;;;;;;4.88;1.00;;;;;;;13.06;39.39;95149.00;5073897;28;20119;-77
2021/11/30 08:12:46;;;;;;;0.60;0.60;;;;;;;12.18;39.04;95112.25;5073312;28;20047;-78
2021/11/30 08:15:14;;;;;;;0.60;0.60;;;;;;;12.73;37.77;95195.06;5070797;28;20444;-77
2021/11/30 08:17:39;;;;;;;2.08;0.70;;;;;;;12.12;37.14;95227.66;5052520;28;20037;-75
2021/11/30 08:20:06;;;;;;;1.23;0.70;;;;;;;12.58;36.99;95226.31;5031065;28;20047;-78
2021/11/30 08:22:32;;;;;;;0.60;0.60;;;;;;;13.06;36.07;95141.00;5082800;28;20117;-74
2021/11/30 08:24:58;;;;;;;1.33;0.82;;;;;;;12.41;35.81;95204.63;5052892;28;20066;-77
2021/11/30 08:27:24;;;;;;;0.95;0.80;;;;;;;12.76;36.72;95204.38;5052297;28;20127;-75
2021/11/30 08:29:50;;;;;;;0.90;0.70;;;;;;;12.63;38.04;95243.03;5036362;28;20078;-78
2021/11/30 08:32:22;;;;;;;2.03;0.90;;;;;;;12.39;39.37;95218.22;5088379;28;20126;-74
2021/11/30 08:34:50;;;;;;;1.42;0.85;;;;;;;12.73;39.51;95171.09;5041066;28;20523;-75
2021/11/30 08:37:16;;;;;;;1.20;0.80;;;;;;;12.01;39.15;95258.81;5071742;28;20066;-74
2021/11/30 08:39:42;;;;;;;0.70;0.70;;;;;;;11.79;39.32;95133.50;5032617;28;20086;-74
2021/11/30 08:42:12;;;;;;;1.33;0.75;;;;;;;12.51;38.44;95271.88;5049321;28;20543;-75
2021/11/30 08:44:39;;;;;;;1.10;1.00;;;;;;;12.36;38.09;95200.13;5054297;28;20040;-75
2021/11/30 08:47:07;;;;;;;1.27;0.80;;;;;;;12.75;37.29;95153.00;5055766;28;20079;-75
2021/11/30 08:49:32;;;;;;;1.80;0.80;;;;;;;11.77;37.13;95236.59;5072452;28;20070;-73
2021/11/30 08:51:59;;;;;;;1.10;0.80;;;;;;;11.43;37.56;95185.16;5056881;28;20488;-79
2021/11/30 08:54:26;;;;;;;0.98;0.80;;;;;;;11.73;37.51;95193.06;5023885;28;20039;-78
2021/11/30 08:56:52;;;;;;;0.80;0.80;;;;;;;11.71;38.25;95157.97;5076855;28;20063;-75
2021/11/30 08:59:18;;;;;;;2.65;1.02;;;;;;;11.93;37.61;95253.28;5040825;28;20043;-79
2021/11/30 09:01:45;;;;;;;1.00;0.90;;;;;;;12.24;37.81;95138.50;5040079;28;20051;-77
2021/11/30 09:04:10;;;;;;;0.85;0.85;;;;;;;11.59;38.09;95192.78;5056378;28;20496;-78
2021/11/30 09:06:36;;;;;;;1.00;0.90;;;;;;;11.87;37.31;95124.94;5073338;28;20082;-80
2021/11/30 09:09:08;;;;;;;0.82;0.80;;;;;;;11.79;37.69;95187.44;5057287;28;20104;-79
2021/11/30 09:11:35;;;;;;;2.65;0.85;;;;;;;12.03;37.69;95170.81;5072129;28;20044;-79
2021/11/30 09:14:01;;;;;;;1.27;0.90;;;;;;;11.71;37.77;95163.31;5055189;28;20043;-76
2021/11/30 09:16:26;;;;;;;0.95;0.93;;;;;;;11.96;37.53;95157.84;5039003;28;20158;-74
2021/11/30 09:18:52;;;;;;;1.48;0.90;;;;;;;11.43;37.94;95225.00;5055323;28;20054;-76
2021/11/30 09:21:18;;;;;;;1.38;0.90;;;;;;;11.36;37.64;95184.66;5055705;28;20074;-79
2021/11/30 09:23:45;;;;;;;2.22;0.80;;;;;;;11.53;37.64;95145.28;5055201;28;20439;-78
2021/11/30 09:26:12;;;;;;;0.80;0.80;;;;;;;11.52;38.21;95123.25;5032781;28;20040;-79
2021/11/30 09:28:39;;;;;;;1.10;0.90;;;;;;;11.72;37.71;95210.06;5061725;28;20039;-79
2021/11/30 09:31:05;;;;;;;1.52;0.95;;;;;;;11.52;37.69;95127.75;5055509;28;20393;-78
2021/11/30 09:33:31;;;;;;;0.80;0.80;;;;;;;11.61;37.75;95139.38;5071693;28;20082;-77
2021/11/30 09:35:57;;;;;;;0.88;0.88;;;;;;;11.19;37.52;95088.59;5051040;28;20575;-78
2021/11/30 09:38:23;;;;;;;0.80;0.80;;;;;;;11.25;37.68;95106.91;5019810;28;20123;-79
2021/11/30 09:40:51;;;;;;;1.25;1.00;;;;;;;11.02;39.94;95303.13;5036206;28;20037;-77
2021/11/30 09:43:19;;;;;;;1.00;0.83;;;;;;;11.34;38.63;95117.75;5036702;28;20612;-76
2021/11/30 09:45:45;;;;;;;0.80;0.80;;;;;;;11.18;38.66;95156.81;5050374;28;20118;-77
2021/11/30 09:48:13;;;;;;;1.17;0.95;;;;;;;11.17;37.57;95152.59;5057683;28;20637;-76
2021/11/30 09:50:41;;;;;;;0.80;0.80;;;;;;;11.04;38.09;95171.72;5058316;28;20051;-79
2021/11/30 09:53:07;;;;;;;2.50;0.90;;;;;;;10.98;38.41;95202.00;5093666;28;20504;-79
2021/11/30 09:55:34;;;;;;;1.40;1.10;;;;;;;10.92;38.52;95162.47;5057118;28;20059;-77
2021/11/30 09:58:00;;;;;;;0.82;0.82;;;;;;;10.79;37.67;95102.81;5020178;28;20056;-77
2021/11/30 10:00:26;;;;;;;1.40;0.90;;;;;;;11.08;37.75;95153.41;5053565;28;20487;-76
2021/11/30 10:02:54;;;;;;;2.80;1.00;;;;;;;11.12;38.19;95162.41;5054879;28;20048;-75
2021/11/30 10:05:20;;;;;;;0.80;0.80;;;;;;;10.61;38.71;95192.75;5037735;28;20543;-78
2021/11/30 10:07:52;;;;;;;1.35;1.02;;;;;;;11.48;38.31;95143.47;5053224;28;20047;-77
2021/11/30 10:10:24;;;;;;;1.00;0.90;;;;;;;11.30;37.94;95104.22;5039175;28;20076;-76
2021/11/30 10:13:09;;;;;;;0.97;0.90;;;;;;;11.35;37.68;95148.53;5068053;28;20058;-76
2021/11/30 10:15:50;;;;;;;1.17;1.03;;;;;;;11.06;38.34;95179.41;5057622;28;20493;-76
2021/11/30 10:18:30;;;;;;;1.27;1.00;;;;;;;11.34;38.56;95198.22;5073463;28;20048;-75
2021/11/30 10:21:17;;;;;;;0.75;0.75;;;;;;;11.26;38.77;95126.28;5059256;28;20083;-75
2021/11/30 10:23:56;;;;;;;1.83;1.40;;;;;;;11.14;38.96;95131.09;5042104;28;20527;-76
2021/11/30 10:26:24;;;;;;;1.67;1.20;;;;;;;11.11;41.39;95140.41;5056913;28;20039;-73
2021/11/30 10:28:52;;;;;;;1.13;1.03;;;;;;;10.71;41.44;95230.69;5039994;28;20085;-76
2021/11/30 10:31:18;;;;;;;1.20;1.10;;;;;;;10.23;41.17;95186.09;5055219;28;20040;-77
2021/11/30 10:33:48;;;;;;;1.53;1.20;;;;;;;11.00;40.80;95164.56;5055596;28;20036;-76
2021/11/30 10:36:14;;;;;;;1.20;1.10;;;;;;;10.07;42.63;95179.97;5054236;28;20032;-74
2021/11/30 10:38:41;;;;;;;5.63;1.40;;;;;;;10.04;42.63;95097.56;5039792;28;20043;-75
2021/11/30 10:41:24;;;;;;;2.80;1.60;;;;;;;10.88;42.00;95124.28;5056024;28;20420;-77
2021/11/30 10:43:55;;;;;;;3.23;1.60;;;;;;;10.50;42.04;95175.25;5056498;28;20043;-75
2021/11/30 10:46:26;;;;;;;2.85;1.65;;;;;;;10.50;42.06;95106.31;5056431;28;20719;-78
2021/11/30 10:48:52;;;;;;;1.67;1.57;;;;;;;9.99;42.32;95155.84;5056253;28;20051;-74
2021/11/30 10:51:18;;;;;;;1.50;1.40;;;;;;;9.64;42.03;95201.56;5073340;28;20038;-79
2021/11/30 10:53:48;;;;;;;1.33;1.20;;;;;;;10.16;41.93;95082.97;5023713;28;20047;-79
2021/11/30 10:56:15;;;;;;;1.40;1.00;;;;;;;9.71;41.64;95140.41;5051973;28;20042;-75
2021/11/30 10:58:43;;;;;;;1.10;1.00;;;;;;;9.90;42.35;95136.22;5034318;28;20044;-79
2021/11/30 11:01:18;;;;;;;2.30;1.00;;;;;;;10.28;42.34;95035.00;5054926;28;20593;-78
2021/11/30 11:04:01;;;;;;;1.20;1.10;;;;;;;10.04;42.46;95005.59;5048872;28;20043;-80
2021/11/30 11:06:31;;;;;;;1.63;1.00;;;;;;;10.23;41.34;95080.88;5040062;28;20500;-79
2021/11/30 11:09:02;;;;;;;2.60;1.10;;;;;;;9.96;42.20;95153.72;5044251;28;20059;-77
2021/11/30 11:11:34;;;;;;;1.23;1.00;;;;;;;10.19;41.15;94989.69;5030622;28;20535;-77
2021/11/30 11:14:02;;;;;;;1.20;1.07;;;;;;;9.92;41.28;95062.56;5029288;28;20051;-79
2021/11/30 11:16:37;;;;;;;3.40;1.40;;;;;;;10.37;40.84;95102.34;5027596;28;20037;-78
2021/11/30 11:19:07;;;;;;;2.97;1.30;;;;;;;9.97;41.60;95044.81;5045489;28;20113;-80
2021/11/30 11:21:36;;;;;;;1.20;1.10;;;;;;;9.75;41.43;95043.47;5035261;28;20129;-79
2021/11/30 11:24:13;;;;;;;1.03;0.93;;;;;;;10.53;40.97;95089.84;5055376;28;20056;-78
2021/11/30 11:26:51;;;;;;;1.20;1.10;;;;;;;9.91;42.42;95101.50;5053913;28;20039;-79
2021/11/30 11:29:30;;;;;;;1.13;1.03;;;;;;;10.46;41.52;95124.59;5087067;28;20125;-80
2021/11/30 11:32:00;;;;;;;1.80;1.20;;;;;;;10.09;41.81;95114.28;5020895;28;20130;-75
2021/11/30 11:34:28;;;;;;;1.53;1.20;;;;;;;10.30;44.47;95022.28;5017686;28;20033;-78
2021/11/30 11:36:56;;;;;;;1.77;1.60;;;;;;;10.03;42.74;95075.56;5036015;28;20048;-79
2021/11/30 11:39:23;;;;;;;1.80;1.70;;;;;;;10.02;43.03;95067.88;5057444;28;20040;-78
2021/11/30 11:41:57;;;;;;;3.13;1.97;;;;;;;10.53;42.57;95058.03;5063178;28;20044;-82
2021/11/30 11:44:24;;;;;;;4.40;2.30;;;;;;;10.16;43.11;95080.34;5059493;28;20042;-77